Time;durP1;ratioP1;P1;durP2;ratioP2;P2;SDS_P1;SDS_P2;PMS_P1;PMS_P2;Temp;Humidity;BMP_temperature;BMP_pressure;BME280_temperature;BME280_humidity;BME280_pressure;Samples;Min_cycle;Max_cycle;Signal;HPM_P1;HPM_P2
2022/09/26 00:01:28;;;;;;;4.90;3.83;;;9.50;99.90;;;;;;5033956;28;20242;-85
2022/09/26 00:03:57;;;;;;;5.70;4.20;;;9.60;99.90;;;;;;5032515;28;20199;-85
2022/09/26 00:06:26;;;;;;;7.23;4.10;;;9.60;99.90;;;;;;5033598;28;20228;-85
2022/09/26 00:08:53;;;;;;;9.17;4.00;;;9.60;99.90;;;;;;5032050;28;20204;-85
2022/09/26 00:11:22;;;;;;;10.90;3.90;;;9.70;99.90;;;;;;5032443;28;20188;-84
2022/09/26 00:13:52;;;;;;;4.17;3.67;;;9.60;99.90;;;;;;5033062;28;20204;-85
2022/09/26 00:16:19;;;;;;;4.27;3.70;;;9.60;99.90;;;;;;5033582;28;20705;-84
2022/09/26 00:18:48;;;;;;;8.47;3.90;;;9.70;99.90;;;;;;5038431;28;20231;-85
2022/09/26 00:21:15;;;;;;;5.80;3.67;;;9.60;99.90;;;;;;5031800;28;20235;-85
2022/09/26 00:23:44;;;;;;;6.67;3.90;;;9.50;99.90;;;;;;5030342;28;20200;-84
2022/09/26 00:26:13;;;;;;;5.60;3.10;;;9.60;99.90;;;;;;5041167;28;20215;-85
2022/09/26 00:28:40;;;;;;;5.30;3.40;;;9.40;99.90;;;;;;5032937;28;20231;-84
2022/09/26 00:31:09;;;;;;;4.17;3.40;;;9.50;99.90;;;;;;5031942;28;20221;-85
2022/09/26 00:33:36;;;;;;;5.17;3.50;;;9.50;99.90;;;;;;5032047;28;20229;-85
2022/09/26 00:36:04;;;;;;;4.90;3.50;;;9.60;99.90;;;;;;5033095;28;20230;-85
2022/09/26 00:38:30;;;;;;;3.77;2.80;;;9.50;99.90;;;;;;5033251;28;20206;-85
2022/09/26 00:40:59;;;;;;;8.57;4.00;;;9.50;99.90;;;;;;5030756;28;20225;-85
2022/09/26 00:43:31;;;;;;;8.53;3.37;;;9.60;99.90;;;;;;5038060;28;20206;-85
2022/09/26 00:46:01;;;;;;;5.13;2.93;;;9.60;99.90;;;;;;5029634;28;20711;-85
2022/09/26 00:48:29;;;;;;;5.70;2.97;;;9.60;99.90;;;;;;5031758;28;20202;-85
2022/09/26 00:50:56;;;;;;;3.90;3.10;;;9.50;99.90;;;;;;5030693;28;20208;-85
2022/09/26 00:53:27;;;;;;;6.70;3.30;;;9.60;99.90;;;;;;5031545;28;20674;-85
2022/09/26 00:55:58;;;;;;;9.73;2.80;;;9.70;99.90;;;;;;5031421;28;20430;-85
2022/09/26 00:58:30;;;;;;;6.93;3.00;;;9.70;99.90;;;;;;5031859;28;20238;-85
2022/09/26 01:00:58;;;;;;;3.07;2.73;;;9.70;99.90;;;;;;5029379;28;20216;-85
2022/09/26 01:03:25;;;;;;;5.03;2.60;;;9.60;99.90;;;;;;5031236;28;20207;-85
2022/09/26 01:05:53;;;;;;;3.83;2.47;;;9.70;99.90;;;;;;5030226;28;20226;-85
2022/09/26 01:08:26;;;;;;;3.27;2.83;;;9.70;99.90;;;;;;5030549;28;20200;-85
2022/09/26 01:10:53;;;;;;;5.97;2.90;;;9.60;99.90;;;;;;5029960;28;20209;-85
2022/09/26 01:13:20;;;;;;;5.30;2.93;;;9.60;99.90;;;;;;5030715;28;20203;-85
2022/09/26 01:15:48;;;;;;;4.03;2.67;;;9.60;99.90;;;;;;5030236;28;20226;-85
2022/09/26 01:18:15;;;;;;;4.13;2.70;;;9.70;99.90;;;;;;5031053;28;20203;-85
2022/09/26 01:20:51;;;;;;;5.50;2.60;;;9.70;99.90;;;;;;5030199;28;20600;-85
2022/09/26 01:23:43;;;;;;;4.37;2.43;;;9.70;99.90;;;;;;5029026;28;20838;-85
2022/09/26 01:26:45;;;;;;;5.07;2.60;;;9.60;99.90;;;;;;5031002;28;20226;-85
2022/09/26 01:32:58;;;;;;;4.63;2.67;;;9.60;99.90;;;;;;5108181;27;20545;-85
2022/09/26 01:35:46;;;;;;;4.60;2.37;;;9.70;99.90;;;;;;5099480;28;20225;-85
2022/09/26 01:38:23;;;;;;;2.80;2.20;;;9.60;99.90;;;;;;5088495;28;20200;-85
2022/09/26 01:41:06;;;;;;;4.77;2.57;;;9.60;99.90;;;;;;5088446;28;20205;-85
2022/09/26 01:43:40;;;;;;;4.13;2.50;;;9.50;99.90;;;;;;5088378;28;20541;-85
2022/09/26 01:46:16;;;;;;;10.07;2.83;;;9.60;99.90;;;;;;5088259;28;20296;-85
2022/09/26 01:48:48;;;;;;;5.73;2.60;;;9.50;99.90;;;;;;5087478;28;20211;-85
2022/09/26 01:51:20;;;;;;;3.57;2.30;;;9.50;99.90;;;;;;5079845;28;20221;-85
2022/09/26 01:53:53;;;;;;;7.10;2.50;;;9.60;99.90;;;;;;5093807;28;20190;-85
2022/09/26 01:56:23;;;;;;;6.70;2.67;;;9.60;99.90;;;;;;5088024;28;20708;-85
2022/09/26 01:58:54;;;;;;;2.63;2.30;;;9.70;99.90;;;;;;5088174;28;20194;-85
2022/09/26 02:01:25;;;;;;;4.20;2.23;;;9.70;99.90;;;;;;5087930;28;20200;-85
2022/09/26 02:03:56;;;;;;;3.90;2.73;;;9.70;99.90;;;;;;5088149;28;20210;-85
2022/09/26 02:06:29;;;;;;;5.80;2.23;;;9.70;99.90;;;;;;5087748;28;20227;-85
2022/09/26 02:09:02;;;;;;;3.60;2.70;;;9.80;99.90;;;;;;5088069;28;20206;-85
2022/09/26 02:11:29;;;;;;;5.23;2.77;;;9.80;99.90;;;;;;5088491;28;20316;-85
2022/09/26 02:14:02;;;;;;;2.97;2.30;;;9.80;99.90;;;;;;5086424;28;20688;-85
2022/09/26 02:16:35;;;;;;;3.10;2.60;;;9.90;99.90;;;;;;5087264;28;20230;-85
2022/09/26 02:19:07;;;;;;;4.10;2.27;;;10.00;99.90;;;;;;5087289;28;20333;-85
2022/09/26 02:21:34;;;;;;;3.37;2.20;;;10.00;99.90;;;;;;5088200;28;20218;-85
2022/09/26 02:24:02;;;;;;;6.43;2.43;;;10.00;99.90;;;;;;5087376;28;20197;-85
2022/09/26 02:26:29;;;;;;;5.93;2.70;;;10.00;99.90;;;;;;5087716;28;20698;-85
2022/09/26 02:28:56;;;;;;;3.87;2.83;;;10.00;99.90;;;;;;5087513;28;20194;-85
2022/09/26 02:31:28;;;;;;;5.83;3.30;;;10.00;99.90;;;;;;5086273;28;20221;-84
2022/09/26 02:33:55;;;;;;;5.50;2.70;;;10.00;99.90;;;;;;5088106;28;20201;-85
2022/09/26 02:36:24;;;;;;;4.90;2.80;;;10.00;99.90;;;;;;5092387;28;20592;-85
2022/09/26 02:38:50;;;;;;;4.80;2.80;;;10.00;99.90;;;;;;5079768;28;20201;-85
2022/09/26 02:41:27;;;;;;;5.67;2.50;;;10.00;99.90;;;;;;5086260;28;20201;-85
2022/09/26 02:44:16;;;;;;;6.30;2.87;;;10.00;99.90;;;;;;5073644;28;20241;-85
2022/09/26 02:47:05;;;;;;;6.20;2.60;;;10.10;99.90;;;;;;5052025;28;20226;-85
2022/09/26 02:49:49;;;;;;;8.67;2.80;;;10.10;99.90;;;;;;5063405;28;20206;-85
2022/09/26 02:52:34;;;;;;;4.00;2.80;;;10.10;99.90;;;;;;5075270;28;20301;-84
2022/09/26 02:55:12;;;;;;;5.27;2.77;;;10.20;99.90;;;;;;5075166;28;20585;-85
2022/09/26 02:57:49;;;;;;;5.03;2.80;;;10.10;99.90;;;;;;5069801;28;20234;-85
2022/09/26 03:00:19;;;;;;;6.80;2.70;;;10.10;99.90;;;;;;5064196;28;20194;-84
2022/09/26 03:02:53;;;;;;;6.07;2.90;;;10.10;99.90;;;;;;5074689;28;20199;-85
2022/09/26 03:05:22;;;;;;;5.33;2.87;;;10.10;99.90;;;;;;5074418;28;20976;-85
2022/09/26 03:07:56;;;;;;;5.63;2.50;;;10.10;99.90;;;;;;5074185;28;20198;-85
2022/09/26 03:10:25;;;;;;;3.03;2.30;;;10.20;99.90;;;;;;5073783;28;20696;-84
2022/09/26 03:12:54;;;;;;;4.57;2.40;;;10.20;99.90;;;;;;5076360;28;20225;-85
2022/09/26 03:15:23;;;;;;;4.53;2.50;;;10.20;99.90;;;;;;5073230;28;20256;-84
2022/09/26 03:17:53;;;;;;;5.93;2.90;;;10.20;99.90;;;;;;5070583;28;20198;-84
2022/09/26 03:20:22;;;;;;;5.23;2.50;;;10.20;99.90;;;;;;5073906;28;20210;-84
2022/09/26 03:22:51;;;;;;;4.07;2.63;;;10.20;99.90;;;;;;5073790;28;20670;-85
2022/09/26 03:25:21;;;;;;;6.63;2.53;;;10.10;99.90;;;;;;5074019;28;20709;-84
2022/09/26 03:27:48;;;;;;;3.57;2.50;;;10.10;99.90;;;;;;5074114;28;20289;-84
2022/09/26 03:30:17;;;;;;;5.80;3.00;;;10.10;99.90;;;;;;5073151;28;20220;-85
2022/09/26 03:32:44;;;;;;;7.90;2.90;;;10.10;99.90;;;;;;5073562;28;20236;-84
2022/09/26 03:35:11;;;;;;;4.10;2.20;;;10.10;99.90;;;;;;5073434;28;20224;-84
2022/09/26 03:37:38;;;;;;;5.97;2.33;;;10.20;99.90;;;;;;5073384;28;20294;-84
2022/09/26 03:40:10;;;;;;;4.90;2.83;;;10.10;99.90;;;;;;5073376;28;20198;-84
2022/09/26 03:42:37;;;;;;;2.70;2.40;;;10.00;99.90;;;;;;5073868;28;20638;-85
2022/09/26 03:45:07;;;;;;;4.07;2.27;;;10.20;99.90;;;;;;5073549;28;20206;-84
2022/09/26 03:47:34;;;;;;;4.90;2.30;;;10.10;99.90;;;;;;5073150;28;20214;-85
2022/09/26 03:50:01;;;;;;;5.60;2.90;;;10.10;99.90;;;;;;5073553;28;20202;-85
2022/09/26 03:52:29;;;;;;;2.63;2.20;;;10.10;99.90;;;;;;5073367;28;20304;-85
2022/09/26 03:54:56;;;;;;;4.50;2.40;;;10.10;99.90;;;;;;5072549;28;20245;-85
2022/09/26 03:57:24;;;;;;;2.27;2.03;;;10.10;99.90;;;;;;5073324;28;20210;-85
2022/09/26 03:59:51;;;;;;;4.87;2.03;;;10.20;99.90;;;;;;5073224;28;20199;-84
2022/09/26 04:02:18;;;;;;;3.23;2.37;;;10.20;99.90;;;;;;5073382;28;20194;-84
2022/09/26 04:04:45;;;;;;;9.20;2.77;;;10.30;99.90;;;;;;5073457;28;20210;-85
2022/09/26 04:07:12;;;;;;;5.23;2.53;;;10.20;99.90;;;;;;5074238;28;20222;-84
2022/09/26 04:09:38;;;;;;;5.03;2.50;;;10.30;99.90;;;;;;5073726;28;20198;-84
2022/09/26 04:12:06;;;;;;;5.40;2.67;;;10.30;99.90;;;;;;5074177;28;20218;-85
2022/09/26 04:14:35;;;;;;;4.73;3.30;;;10.30;99.90;;;;;;5074557;28;20666;-84
2022/09/26 04:17:02;;;;;;;3.63;2.63;;;10.20;99.90;;;;;;5074099;28;20229;-84
2022/09/26 04:19:28;;;;;;;4.17;2.00;;;10.30;99.90;;;;;;5074608;28;20213;-84
2022/09/26 04:21:55;;;;;;;3.47;1.90;;;10.30;99.90;;;;;;5067966;28;20201;-84
2022/09/26 04:24:22;;;;;;;4.37;2.00;;;10.30;99.90;;;;;;5067044;28;20210;-84
2022/09/26 04:26:49;;;;;;;4.80;2.30;;;10.30;99.90;;;;;;5072525;28;20790;-84
2022/09/26 04:29:16;;;;;;;4.87;2.30;;;10.30;99.90;;;;;;5074705;28;20208;-84
2022/09/26 04:31:45;;;;;;;4.27;2.30;;;10.30;99.90;;;;;;5072167;28;20230;-85
2022/09/26 04:34:13;;;;;;;4.50;2.50;;;10.30;99.90;;;;;;5075877;28;20523;-84
2022/09/26 04:36:41;;;;;;;2.93;2.50;;;10.40;99.90;;;;;;5075570;28;20254;-85
2022/09/26 04:39:08;;;;;;;5.50;2.43;;;10.40;99.90;;;;;;5072571;28;20206;-84
2022/09/26 04:41:35;;;;;;;4.70;2.37;;;10.30;99.90;;;;;;5072013;28;20198;-84
2022/09/26 04:44:02;;;;;;;2.63;2.43;;;10.40;99.90;;;;;;5073941;28;20667;-84
2022/09/26 04:46:30;;;;;;;4.77;2.70;;;10.40;99.90;;;;;;5078589;28;20228;-84
2022/09/26 04:48:59;;;;;;;5.50;2.93;;;10.30;99.90;;;;;;5074291;28;20209;-84
2022/09/26 04:51:28;;;;;;;4.90;2.80;;;10.40;99.90;;;;;;5070542;28;20588;-83
2022/09/26 04:53:55;;;;;;;4.30;2.57;;;10.40;99.90;;;;;;5070006;28;20198;-84
2022/09/26 04:56:24;;;;;;;4.97;3.23;;;10.40;99.90;;;;;;5073676;28;20230;-83
2022/09/26 04:58:53;;;;;;;4.37;2.63;;;10.40;99.90;;;;;;5071036;28;20197;-85
2022/09/26 05:01:21;;;;;;;6.37;2.60;;;10.30;99.90;;;;;;5065934;28;20203;-83
2022/09/26 05:03:48;;;;;;;4.30;2.50;;;10.40;99.90;;;;;;5072432;28;20746;-84
2022/09/26 05:06:17;;;;;;;4.50;2.70;;;10.40;99.90;;;;;;5069218;28;20221;-83
2022/09/26 05:08:45;;;;;;;5.73;3.17;;;10.30;99.90;;;;;;5072451;28;20206;-83
2022/09/26 05:11:13;;;;;;;3.73;2.80;;;10.20;99.90;;;;;;5074316;28;20234;-84
2022/09/26 05:13:39;;;;;;;7.47;3.33;;;10.20;99.90;;;;;;5074999;28;20485;-84
2022/09/26 05:16:08;;;;;;;7.43;3.40;;;10.20;99.90;;;;;;5067601;28;20218;-84
2022/09/26 05:18:36;;;;;;;5.37;2.83;;;10.10;99.90;;;;;;5071721;28;20194;-84
2022/09/26 05:21:05;;;;;;;6.43;3.20;;;10.10;99.90;;;;;;5072950;28;20289;-84
2022/09/26 05:26:24;;;;;;;4.93;3.03;;;10.00;99.90;;;;;;5072618;28;20236;-84
2022/09/26 05:28:53;;;;;;;4.00;2.80;;;10.00;99.90;;;;;;5070905;28;20206;-84
2022/09/26 05:31:22;;;;;;;4.97;2.73;;;10.10;99.90;;;;;;5072037;28;20206;-84
2022/09/26 05:33:50;;;;;;;3.13;2.30;;;10.10;99.90;;;;;;5073470;28;20206;-84
2022/09/26 05:36:18;;;;;;;3.37;3.00;;;10.10;99.90;;;;;;5078996;28;20218;-84
2022/09/26 05:38:46;;;;;;;5.17;2.67;;;10.10;99.90;;;;;;5074992;28;20602;-84
2022/09/26 05:41:13;;;;;;;4.87;2.60;;;10.20;99.90;;;;;;5068842;28;20198;-84
2022/09/26 05:43:40;;;;;;;4.43;2.67;;;10.20;99.90;;;;;;5068365;28;20206;-84
2022/09/26 05:46:09;;;;;;;6.47;3.37;;;10.30;99.90;;;;;;5073125;28;20536;-84
2022/09/26 05:48:37;;;;;;;3.33;2.70;;;10.30;99.90;;;;;;5069338;28;20198;-84
2022/09/26 05:51:05;;;;;;;5.03;2.50;;;10.30;99.90;;;;;;5074325;28;20251;-84
2022/09/26 05:53:33;;;;;;;6.57;2.90;;;10.30;99.90;;;;;;5066359;28;20608;-84
2022/09/26 05:56:01;;;;;;;4.60;2.40;;;10.40;99.90;;;;;;5070677;28;20603;-84
2022/09/26 05:58:31;;;;;;;4.53;2.40;;;10.30;99.90;;;;;;5071379;28;20198;-84
2022/09/26 06:01:01;;;;;;;6.53;2.47;;;10.40;99.90;;;;;;5073847;28;20198;-84
2022/09/26 06:03:33;;;;;;;4.07;2.57;;;10.50;99.90;;;;;;5077330;28;20217;-84
2022/09/26 06:06:02;;;;;;;6.37;2.37;;;10.50;99.90;;;;;;5066070;28;20306;-84
2022/09/26 06:08:29;;;;;;;5.87;2.47;;;10.70;99.90;;;;;;5075099;28;20195;-84
2022/09/26 06:11:01;;;;;;;4.83;2.53;;;10.80;99.90;;;;;;5073361;28;20210;-84
2022/09/26 06:13:29;;;;;;;2.67;2.33;;;10.80;99.90;;;;;;5074564;28;20268;-84
2022/09/26 06:15:56;;;;;;;5.03;2.30;;;10.80;99.90;;;;;;5068287;28;20241;-84
2022/09/26 06:18:23;;;;;;;4.20;2.50;;;10.90;99.90;;;;;;5071885;28;20242;-84
2022/09/26 06:20:50;;;;;;;3.83;2.17;;;10.90;99.90;;;;;;5071528;28;20199;-84
2022/09/26 06:23:17;;;;;;;5.03;2.27;;;11.00;99.90;;;;;;5081775;28;20198;-84
2022/09/26 06:25:43;;;;;;;4.13;2.37;;;10.90;99.90;;;;;;5070142;28;20241;-83
2022/09/26 06:28:12;;;;;;;4.53;2.60;;;10.90;99.90;;;;;;5072028;28;20199;-84
2022/09/26 06:30:39;;;;;;;6.33;2.50;;;11.00;99.90;;;;;;5075159;28;20214;-84
2022/09/26 06:33:05;;;;;;;5.90;2.50;;;11.00;99.90;;;;;;5082576;28;20301;-84
2022/09/26 06:35:33;;;;;;;5.40;2.53;;;11.00;99.90;;;;;;5076483;28;20229;-84
2022/09/26 06:38:00;;;;;;;5.30;2.60;;;11.00;99.90;;;;;;5076322;28;20205;-84
2022/09/26 06:40:27;;;;;;;4.50;2.80;;;11.10;99.90;;;;;;5090293;28;20581;-84
2022/09/26 06:42:55;;;;;;;4.93;2.60;;;11.10;99.90;;;;;;5083302;28;20198;-84
2022/09/26 06:45:24;;;;;;;3.60;2.70;;;11.20;99.90;;;;;;5076391;28;20219;-84
2022/09/26 06:47:51;;;;;;;7.17;3.23;;;11.20;99.90;;;;;;5066839;28;20198;-84
2022/09/26 06:50:17;;;;;;;4.07;2.90;;;11.20;99.90;;;;;;5075634;28;20704;-81
2022/09/26 06:52:44;;;;;;;6.07;3.17;;;11.20;99.90;;;;;;5076219;28;20716;-81
2022/09/26 06:55:11;;;;;;;6.40;3.27;;;11.20;99.90;;;;;;5074358;28;20258;-81
2022/09/26 06:57:39;;;;;;;6.87;2.60;;;11.30;99.90;;;;;;5075026;28;20658;-81
2022/09/26 07:00:07;;;;;;;5.03;3.10;;;11.40;99.90;;;;;;5074200;28;20210;-81
2022/09/26 07:02:36;;;;;;;7.53;3.47;;;11.50;99.90;;;;;;5075608;28;20686;-81
2022/09/26 07:05:04;;;;;;;3.37;2.70;;;11.50;99.90;;;;;;5076356;28;20321;-82
2022/09/26 07:07:31;;;;;;;6.63;3.10;;;11.60;99.90;;;;;;5075661;28;20558;-82
2022/09/26 07:09:58;;;;;;;8.33;3.40;;;11.70;99.90;;;;;;5076228;28;20203;-82
2022/09/26 07:12:24;;;;;;;5.33;3.10;;;11.70;99.90;;;;;;5083818;28;20224;-81
2022/09/26 07:14:51;;;;;;;4.70;3.00;;;11.70;99.90;;;;;;5074830;28;20244;-81
2022/09/26 07:17:18;;;;;;;7.60;3.30;;;11.60;99.90;;;;;;5074329;28;20211;-82
2022/09/26 07:19:52;;;;;;;6.13;2.60;;;11.70;99.90;;;;;;5074831;28;20218;-82
2022/09/26 07:22:19;;;;;;;4.73;2.77;;;11.80;99.90;;;;;;5075842;28;20213;-82
2022/09/26 07:24:47;;;;;;;5.90;3.40;;;11.80;99.90;;;;;;5075223;28;20579;-82
2022/09/26 07:27:15;;;;;;;8.13;3.20;;;11.90;34.60;;;;;;5075944;28;20277;-82
2022/09/26 07:29:42;;;;;;;4.93;3.07;;;11.90;1.00;;;;;;5073302;28;20233;-82
2022/09/26 07:32:09;;;;;;;4.30;2.97;;;12.00;1.00;;;;;;5074333;28;20336;-82
2022/09/26 07:34:37;;;;;;;4.60;2.77;;;12.20;61.70;;;;;;5073118;28;20238;-82
2022/09/26 07:37:06;;;;;;;4.97;2.73;;;12.20;53.70;;;;;;5074650;28;20308;-82
2022/09/26 07:39:33;;;;;;;10.50;2.70;;;12.30;1.00;;;;;;5073586;28;20482;-82
2022/09/26 07:42:02;;;;;;;6.67;2.90;;;12.40;1.00;;;;;;5073903;28;20212;-81
2022/09/26 07:44:29;;;;;;;8.67;2.97;;;12.50;1.00;;;;;;5073547;28;20205;-82
2022/09/26 07:52:27;;;;;;;4.23;2.90;;;13.30;1.00;;;;;;5074485;28;20228;-81
2022/09/26 07:54:54;;;;;;;6.53;2.83;;;13.10;1.00;;;;;;5074405;28;20575;-81
2022/09/26 07:57:21;;;;;;;6.00;2.83;;;12.90;24.30;;;;;;5082625;28;20198;-80
2022/09/26 07:59:49;;;;;;;4.63;3.07;;;12.90;99.90;;;;;;5093128;28;20632;-81
2022/09/26 08:02:22;;;;;;;6.53;3.37;;;12.80;1.00;;;;;;5077643;28;20669;-81
2022/09/26 08:04:49;;;;;;;7.87;3.90;;;12.80;1.00;;;;;;5069579;28;20202;-80
2022/09/26 08:07:16;;;;;;;5.47;3.60;;;13.00;99.90;;;;;;5069090;28;20665;-81
2022/09/26 08:09:44;;;;;;;5.10;3.23;;;13.00;1.00;;;;;;5070483;28;20199;-82
2022/09/26 08:12:13;;;;;;;6.10;3.57;;;13.10;1.00;;;;;;5066127;28;20195;-81
2022/09/26 08:14:40;;;;;;;6.03;3.10;;;13.10;1.00;;;;;;5072229;28;20650;-84
2022/09/26 08:17:07;;;;;;;6.23;2.83;;;13.20;99.90;;;;;;5074189;28;20488;-84
2022/09/26 08:19:34;;;;;;;5.77;3.20;;;13.20;1.00;;;;;;5078140;28;20202;-82
2022/09/26 08:22:01;;;;;;;3.83;2.93;;;13.30;1.00;;;;;;5076793;28;20206;-84
2022/09/26 08:24:28;;;;;;;7.00;3.40;;;13.40;1.00;;;;;;5076514;28;20577;-84
2022/09/26 08:26:57;;;;;;;5.20;3.20;;;13.40;1.00;;;;;;5081087;28;20672;-83
2022/09/26 08:29:24;;;;;;;5.43;3.37;;;13.30;1.00;;;;;;5075343;28;20325;-83
2022/09/26 08:31:53;;;;;;;8.03;3.23;;;13.30;1.00;;;;;;5074328;28;20576;-85
2022/09/26 08:34:20;;;;;;;5.43;3.47;;;13.30;1.00;;;;;;5066186;28;20309;-84
2022/09/26 08:36:52;;;;;;;5.87;3.23;;;13.60;1.00;;;;;;5075559;28;20361;-82
2022/09/26 08:39:19;;;;;;;6.07;3.70;;;13.70;99.90;;;;;;5072526;28;20207;-84
2022/09/26 08:42:01;;;;;;;7.37;4.47;;;13.90;1.00;;;;;;5073581;28;20206;-83
2022/09/26 08:44:49;;;;;;;6.30;3.63;;;13.80;1.00;;;;;;5078774;28;20571;-83
2022/09/26 08:47:30;;;;;;;6.77;3.13;;;14.10;1.00;;;;;;5075709;28;20203;-83
2022/09/26 08:50:08;;;;;;;6.87;3.23;;;14.40;99.90;;;;;;5073903;28;20620;-83
2022/09/26 08:52:39;;;;;;;6.63;3.60;;;14.30;1.00;;;;;;5071941;28;20202;-84
2022/09/26 08:55:13;;;;;;;7.73;3.40;;;14.20;1.00;;;;;;5076991;28;20205;-83
2022/09/26 08:57:44;;;;;;;6.63;3.83;;;14.20;1.00;;;;;;5077549;28;20206;-83
2022/09/26 09:00:18;;;;;;;5.07;3.13;;;14.20;1.00;;;;;;5074965;28;20203;-82
2022/09/26 09:02:56;;;;;;;5.60;3.17;;;14.50;99.90;;;;;;5076937;28;20195;-83
2022/09/26 09:05:26;;;;;;;5.97;3.07;;;14.60;1.00;;;;;;5075468;28;20248;-83
2022/09/26 09:07:56;;;;;;;5.23;3.40;;;14.70;99.90;;;;;;5074671;28;20220;-83
2022/09/26 09:10:36;;;;;;;6.50;3.50;;;14.70;1.00;;;;;;5073769;28;20213;-84
2022/09/26 09:13:13;;;;;;;4.77;3.07;;;14.60;1.00;;;;;;5072615;28;20222;-83
2022/09/26 09:15:52;;;;;;;6.17;3.50;;;14.40;20.90;;;;;;5072818;28;20609;-83
2022/09/26 09:18:29;;;;;;;5.57;3.20;;;14.40;99.90;;;;;;5082213;28;20214;-84
2022/09/26 09:21:00;;;;;;;5.93;2.87;;;14.40;99.90;;;;;;5074611;28;20198;-83
2022/09/26 09:23:41;;;;;;;8.90;5.27;;;14.20;1.00;;;;;;5075863;28;20257;-84
2022/09/26 09:26:15;;;;;;;7.33;3.70;;;14.30;1.00;;;;;;5070190;28;20226;-81
2022/09/26 09:29:01;;;;;;;6.30;2.60;;;14.30;1.00;;;;;;5075667;28;20678;-82
2022/09/26 09:31:32;;;;;;;3.83;2.77;;;14.60;1.00;;;;;;5074592;28;20301;-82
2022/09/26 09:34:04;;;;;;;4.17;3.00;;;14.90;99.90;;;;;;5078556;28;20275;-82
2022/09/26 09:36:37;;;;;;;5.93;2.60;;;14.90;1.00;;;;;;5076915;28;20720;-82
2022/09/26 09:39:08;;;;;;;7.47;2.70;;;14.80;1.00;;;;;;5076958;28;20206;-82
2022/09/26 09:41:40;;;;;;;7.17;2.70;;;15.10;1.00;;;;;;5075674;28;20677;-81
2022/09/26 09:44:21;;;;;;;2.90;2.60;;;15.30;99.90;;;;;;5081668;28;20194;-82
2022/09/26 09:46:49;;;;;;;6.20;2.47;;;15.40;99.90;;;;;;5070133;28;20588;-82
2022/09/26 09:49:20;;;;;;;5.13;2.30;;;15.80;1.00;;;;;;5082308;28;20666;-82
2022/09/26 09:51:53;;;;;;;3.92;2.00;;;16.30;1.00;;;;;;5074634;28;20240;-82
2022/09/26 09:54:38;;;;;;;2.17;1.98;;;16.40;99.90;;;;;;5077645;28;20222;-86
2022/09/26 09:57:48;;;;;;;2.60;2.38;;;16.40;56.10;;;;;;5077163;28;20228;-82
2022/09/26 10:00:18;;;;;;;3.50;2.63;;;16.30;49.60;;;;;;5065550;28;20206;-83
2022/09/26 10:03:00;;;;;;;2.97;2.00;;;16.20;95.60;;;;;;5076595;28;20205;-83
2022/09/26 10:05:41;;;;;;;3.67;1.95;;;16.20;99.90;;;;;;5075556;28;20222;-82
2022/09/26 10:08:13;;;;;;;4.05;1.92;;;15.90;1.00;;;;;;5076516;28;20198;-82
2022/09/26 10:10:46;;;;;;;3.70;2.20;;;15.80;99.90;;;;;;5076788;28;20214;-83
2022/09/26 10:13:14;;;;;;;2.17;1.98;;;15.70;21.30;;;;;;5068292;28;20271;-82
2022/09/26 10:15:53;;;;;;;3.13;1.83;;;16.00;99.90;;;;;;5074055;28;20226;-83
2022/09/26 10:18:21;;;;;;;2.42;2.20;;;16.00;1.00;;;;;;5076653;28;20198;-80
2022/09/26 10:20:53;;;;;;;3.05;2.20;;;16.10;1.00;;;;;;5075596;28;20673;-81
2022/09/26 10:23:26;;;;;;;2.72;2.10;;;16.10;1.00;;;;;;5072230;28;20199;-82
2022/09/26 10:25:59;;;;;;;3.03;2.15;;;16.00;1.00;;;;;;5071046;28;20225;-82
2022/09/26 10:28:34;;;;;;;3.90;2.08;;;15.70;1.00;;;;;;5081754;28;20259;-82
2022/09/26 10:31:09;;;;;;;2.28;2.03;;;16.10;1.00;;;;;;5071127;28;20209;-84
2022/09/26 10:33:38;;;;;;;3.22;2.00;;;16.10;1.00;;;;;;5083215;28;20214;-85
2022/09/26 10:36:11;;;;;;;5.15;2.03;;;16.10;1.00;;;;;;5070223;28;20302;-82
2022/09/26 10:41:39;;;;;;;4.83;2.00;;;15.80;1.00;;;;;;5075377;28;20767;-84
2022/09/26 10:44:21;;;;;;;3.33;1.90;;;15.80;1.00;;;;;;5067369;28;20201;-84
2022/09/26 10:46:52;;;;;;;3.60;1.95;;;15.80;1.00;;;;;;5073829;28;20230;-83
2022/09/26 10:49:23;;;;;;;2.90;2.00;;;15.70;1.00;;;;;;5070508;28;20211;-80
2022/09/26 10:51:59;;;;;;;5.28;1.73;;;15.80;1.00;;;;;;5077542;28;20195;-82
2022/09/26 10:54:39;;;;;;;2.08;1.88;;;15.70;1.00;;;;;;5071031;28;20233;-83
2022/09/26 10:57:08;;;;;;;2.23;1.90;;;15.70;1.00;;;;;;5070380;28;20264;-83
2022/09/26 10:59:40;;;;;;;4.70;2.10;;;15.40;99.90;;;;;;5074203;28;20205;-83
2022/09/26 11:02:18;;;;;;;1.80;1.70;;;15.80;99.90;;;;;;5074255;28;20198;-82
2022/09/26 11:07:37;;;;;;;3.87;2.00;;;15.20;99.90;;;;;;5076990;28;20725;-83
2022/09/26 11:10:09;;;;;;;8.70;2.30;;;15.20;99.90;;;;;;5073027;28;20405;-82
2022/09/26 11:12:38;;;;;;;4.37;2.00;;;15.00;99.90;;;;;;5070799;28;20203;-83
2022/09/26 11:15:08;;;;;;;3.93;1.80;;;14.90;99.90;;;;;;5071804;28;20218;-82
2022/09/26 11:17:46;;;;;;;4.60;2.00;;;14.90;1.00;;;;;;5073485;28;20195;-82
2022/09/26 11:20:39;;;;;;;3.55;2.40;;;14.80;1.00;;;;;;5074638;28;20230;-82
2022/09/26 11:23:13;;;;;;;3.73;2.10;;;15.00;1.00;;;;;;5078331;28;20209;-83
2022/09/26 11:25:53;;;;;;;3.97;2.20;;;14.90;1.00;;;;;;5075866;28;20290;-81
2022/09/26 11:28:23;;;;;;;11.50;2.73;;;14.90;1.00;;;;;;5081384;28;20236;-82
2022/09/26 11:30:56;;;;;;;5.00;2.03;;;15.10;99.90;;;;;;5070255;28;20264;-81
2022/09/26 11:33:24;;;;;;;3.60;2.17;;;15.10;1.00;;;;;;5074183;28;20262;-82
2022/09/26 11:36:01;;;;;;;4.10;2.30;;;15.30;1.00;;;;;;5067425;28;20301;-83
2022/09/26 11:38:38;;;;;;;2.40;2.20;;;15.40;1.00;;;;;;5069377;28;20240;-84
2022/09/26 11:41:35;;;;;;;3.73;2.40;;;15.50;1.00;;;;;;5072131;28;20209;-82
2022/09/26 11:44:18;;;;;;;8.07;4.00;;;15.40;99.90;;;;;;5076586;28;20191;-83
2022/09/26 11:46:53;;;;;;;5.95;2.00;;;15.60;99.90;;;;;;5075199;28;20237;-82
2022/09/26 11:49:42;;;;;;;10.98;2.65;;;15.50;99.90;;;;;;5080876;28;20646;-82
2022/09/26 11:52:23;;;;;;;2.47;2.03;;;15.70;99.90;;;;;;5071537;28;20202;-82
2022/09/26 11:55:00;;;;;;;2.53;2.13;;;15.60;99.90;;;;;;5080697;28;20220;-82
2022/09/26 11:57:41;;;;;;;4.13;1.93;;;15.40;99.90;;;;;;5074919;28;20233;-83
2022/09/26 12:00:14;;;;;;;2.77;1.97;;;15.40;1.00;;;;;;5074066;28;20744;-83
2022/09/26 12:03:10;;;;;;;2.40;2.20;;;15.30;1.00;;;;;;5073964;28;20209;-82
2022/09/26 12:05:49;;;;;;;3.00;1.90;;;15.30;1.00;;;;;;5076307;28;20227;-82
2022/09/26 12:08:31;;;;;;;2.57;1.80;;;15.20;1.00;;;;;;5074037;28;20206;-81
2022/09/26 12:11:14;;;;;;;3.97;2.00;;;15.10;99.90;;;;;;5074934;28;20194;-82
2022/09/26 12:13:51;;;;;;;2.23;1.60;;;14.90;1.00;;;;;;5074100;28;20229;-83
2022/09/26 12:16:24;;;;;;;4.20;2.07;;;15.00;99.90;;;;;;5074542;28;20225;-83
2022/09/26 12:19:01;;;;;;;2.60;2.10;;;14.90;1.00;;;;;;5076260;28;20209;-83
2022/09/26 12:24:49;;;;;;;3.13;1.67;;;14.80;1.00;;;;;;5053637;28;20201;-83
2022/09/26 12:27:24;;;;;;;2.57;1.70;;;14.80;51.00;;;;;;5083954;28;20202;-84
2022/09/26 12:30:01;;;;;;;2.80;1.97;;;14.90;98.30;;;;;;5072427;28;20205;-83
2022/09/26 12:32:51;;;;;;;5.07;1.70;;;14.70;1.00;;;;;;5073656;28;20202;-83
2022/09/26 12:35:28;;;;;;;3.93;2.03;;;14.80;1.00;;;;;;5077239;28;20229;-82
2022/09/26 12:38:19;;;;;;;2.87;1.90;;;14.70;99.90;;;;;;5069702;28;20288;-83
2022/09/26 12:41:01;;;;;;;6.60;4.50;;;14.50;1.00;;;;;;5073882;28;20210;-82
2022/09/26 12:43:49;;;;;;;4.03;2.50;;;14.60;1.00;;;;;;5074296;28;20249;-82
2022/09/26 12:46:41;;;;;;;3.60;2.00;;;14.40;1.00;;;;;;5078859;28;20218;-84
2022/09/26 12:49:30;;;;;;;3.03;1.67;;;14.40;1.00;;;;;;5071557;28;20209;-84
2022/09/26 12:52:06;;;;;;;4.87;2.00;;;14.20;1.00;;;;;;5070139;28;20246;-83
2022/09/26 12:54:58;;;;;;;2.53;1.97;;;14.40;1.00;;;;;;5075323;28;20600;-83
2022/09/26 12:57:37;;;;;;;3.97;1.77;;;14.20;1.00;;;;;;5075060;28;20267;-85
2022/09/26 13:00:20;;;;;;;3.00;1.80;;;14.10;1.00;;;;;;5066368;28;20202;-85
2022/09/26 13:03:20;;;;;;;2.13;2.00;;;14.20;99.90;;;;;;5072212;28;20232;-84
2022/09/26 13:06:18;;;;;;;2.73;1.90;;;14.30;99.90;;;;;;5065857;28;20227;-83
2022/09/26 13:08:54;;;;;;;2.50;1.87;;;14.30;1.00;;;;;;5073108;28;20208;-83
2022/09/26 13:11:29;;;;;;;3.40;1.63;;;14.30;99.90;;;;;;5068344;28;20213;-83
2022/09/26 13:14:14;;;;;;;4.07;1.90;;;14.30;1.00;;;;;;5070655;28;20229;-83
2022/09/26 13:17:04;;;;;;;2.00;1.57;;;14.30;1.00;;;;;;5073807;28;20253;-82
2022/09/26 13:19:35;;;;;;;3.53;2.03;;;14.40;99.90;;;;;;5071569;28;20198;-83
2022/09/26 13:22:09;;;;;;;4.43;1.47;;;14.50;1.00;;;;;;5070166;28;20205;-82
2022/09/26 13:24:48;;;;;;;4.63;1.50;;;14.30;99.90;;;;;;5070325;28;20203;-82
2022/09/26 13:27:22;;;;;;;3.00;1.70;;;14.40;99.90;;;;;;5078683;28;20504;-82
2022/09/26 13:29:53;;;;;;;2.23;2.00;;;14.40;99.90;;;;;;5064935;28;20210;-82
2022/09/26 13:32:26;;;;;;;4.40;1.77;;;14.40;99.90;;;;;;5070129;28;20216;-83
2022/09/26 13:34:59;;;;;;;3.63;1.70;;;14.50;1.00;;;;;;5068621;28;20599;-84
2022/09/26 13:37:46;;;;;;;3.33;1.70;;;14.50;1.00;;;;;;5071096;28;20210;-83